createdAt,value
2017-01-04T00:01:06.032Z,0
2017-01-04T00:02:17.428Z,0
2017-01-04T00:03:29.089Z,0
2017-01-04T00:04:40.490Z,0
2017-01-04T00:05:52.093Z,0
2017-01-04T00:07:03.492Z,0
2017-01-04T00:08:14.893Z,0
2017-01-04T00:09:26.548Z,0
2017-01-04T00:10:38.146Z,0
2017-01-04T00:11:49.542Z,0
2017-01-04T00:13:00.937Z,0
2017-01-04T00:14:12.540Z,0
2017-01-04T00:15:23.993Z,0
2017-01-04T00:16:35.592Z,0
2017-01-04T00:17:46.988Z,0
2017-01-04T00:18:58.421Z,0
2017-01-04T00:20:10.023Z,0
2017-01-04T00:21:22.076Z,0
2017-01-04T00:22:33.479Z,0
2017-01-04T00:23:45.084Z,0
2017-01-04T00:24:56.510Z,0
2017-01-04T00:26:07.911Z,0
2017-01-04T00:27:19.365Z,0
2017-01-04T00:28:30.763Z,0
2017-01-04T00:29:42.164Z,0
2017-01-04T00:30:53.569Z,0
2017-01-04T00:32:04.966Z,0
2017-01-04T00:33:16.413Z,0
2017-01-04T00:34:28.026Z,0
2017-01-04T00:35:39.631Z,0
2017-01-04T00:36:51.240Z,0
2017-01-04T00:38:02.840Z,0
2017-01-04T00:39:14.428Z,0
2017-01-04T00:40:25.823Z,0
2017-01-04T00:41:37.223Z,0
2017-01-04T00:42:48.817Z,0
2017-01-04T00:44:00.216Z,0
2017-01-04T00:45:11.668Z,0
2017-01-04T00:46:23.075Z,0
2017-01-04T00:47:34.484Z,0
2017-01-04T00:48:45.890Z,0
2017-01-04T00:49:57.284Z,0
2017-01-04T00:51:08.782Z,0
2017-01-04T00:52:20.177Z,0
2017-01-04T00:53:31.591Z,0
2017-01-04T00:54:42.993Z,0
2017-01-04T00:55:54.397Z,0
2017-01-04T00:57:05.840Z,0
2017-01-04T00:58:17.243Z,0
2017-01-04T00:59:28.635Z,0
2017-01-04T01:00:40.043Z,0
2017-01-04T01:01:51.443Z,0
2017-01-04T01:03:02.901Z,0
2017-01-04T01:04:14.305Z,0
2017-01-04T01:05:25.723Z,0
2017-01-04T01:06:37.128Z,0
2017-01-04T01:07:48.531Z,0
2017-01-04T01:08:59.983Z,0
2017-01-04T01:10:11.384Z,0
2017-01-04T01:11:22.788Z,0
2017-01-04T01:12:34.389Z,0
2017-01-04T01:13:45.790Z,0
2017-01-04T01:14:57.236Z,0
2017-01-04T01:16:08.661Z,0
2017-01-04T01:17:20.076Z,0
2017-01-04T01:18:31.480Z,0
2017-01-04T01:19:42.881Z,0
2017-01-04T01:20:54.732Z,0
2017-01-04T01:22:06.128Z,0
2017-01-04T01:23:17.524Z,0
2017-01-04T01:24:29.145Z,0
2017-01-04T01:25:40.542Z,0
2017-01-04T01:26:52.038Z,0
2017-01-04T01:28:03.444Z,0
2017-01-04T01:29:14.848Z,0
2017-01-04T01:30:26.248Z,0
2017-01-04T01:31:37.646Z,0
2017-01-04T01:32:49.105Z,0
2017-01-04T01:34:00.507Z,0
2017-01-04T01:35:11.911Z,0
2017-01-04T01:36:23.513Z,0
2017-01-04T01:37:34.908Z,0
2017-01-04T01:38:46.364Z,0
2017-01-04T01:39:57.771Z,0
2017-01-04T01:41:09.169Z,0
2017-01-04T01:42:20.577Z,0
2017-01-04T01:43:31.988Z,0
2017-01-04T01:44:43.430Z,0
2017-01-04T01:45:54.821Z,0
2017-01-04T01:47:06.220Z,0
2017-01-04T01:48:17.636Z,0
2017-01-04T01:49:29.034Z,0
2017-01-04T01:50:40.677Z,0
2017-01-04T01:51:52.322Z,0
2017-01-04T01:53:03.726Z,0
2017-01-04T01:54:15.127Z,0
2017-01-04T01:55:26.532Z,0
2017-01-04T01:56:37.983Z,0
2017-01-04T01:57:49.382Z,0
2017-01-04T01:59:00.782Z,0
2017-01-04T02:00:12.175Z,0
2017-01-04T02:01:23.572Z,0
2017-01-04T02:02:35.117Z,0
2017-01-04T02:03:46.519Z,0
2017-01-04T02:04:58.115Z,0
2017-01-04T02:06:09.522Z,0
2017-01-04T02:07:20.916Z,0
2017-01-04T02:08:32.392Z,0
2017-01-04T02:09:43.802Z,0
2017-01-04T02:10:55.197Z,0
2017-01-04T02:12:06.598Z,0
2017-01-04T02:13:18.008Z,0
2017-01-04T02:14:29.456Z,0
2017-01-04T02:15:40.862Z,0
2017-01-04T02:16:52.259Z,0
2017-01-04T02:18:03.660Z,0
2017-01-04T02:19:15.261Z,0
2017-01-04T02:20:26.705Z,0
2017-01-04T02:21:38.313Z,0
2017-01-04T02:22:50.123Z,0
2017-01-04T02:24:01.521Z,0
2017-01-04T02:25:13.121Z,0
2017-01-04T02:26:24.780Z,0
2017-01-04T02:27:36.180Z,0
2017-01-04T02:28:47.580Z,0
2017-01-04T02:29:58.993Z,0
2017-01-04T02:31:10.395Z,0
2017-01-04T02:32:21.852Z,0
2017-01-04T02:33:33.251Z,0
2017-01-04T02:34:44.657Z,0
2017-01-04T02:35:56.053Z,0
2017-01-04T02:37:07.451Z,0
2017-01-04T02:38:18.900Z,0
2017-01-04T02:39:30.300Z,0
2017-01-04T02:40:41.739Z,0
2017-01-04T02:41:53.136Z,0
2017-01-04T02:43:04.539Z,0
2017-01-04T02:44:15.994Z,0
2017-01-04T02:45:27.403Z,0
2017-01-04T02:46:38.806Z,0
2017-01-04T02:47:50.218Z,0
2017-01-04T02:49:01.623Z,0
2017-01-04T02:50:13.074Z,0
2017-01-04T02:51:24.475Z,0
2017-01-04T02:52:35.888Z,0
2017-01-04T02:53:47.289Z,0
2017-01-04T02:54:58.690Z,0
2017-01-04T02:56:10.143Z,0
2017-01-04T02:57:21.543Z,0
2017-01-04T02:58:32.944Z,0
2017-01-04T02:59:44.346Z,0
2017-01-04T03:00:55.947Z,0
2017-01-04T03:02:07.406Z,0
2017-01-04T03:03:18.812Z,0
2017-01-04T03:04:30.210Z,0
2017-01-04T03:05:41.620Z,0
2017-01-04T03:06:53.033Z,0
2017-01-04T03:08:04.489Z,0
2017-01-04T03:09:15.889Z,0
2017-01-04T03:10:27.304Z,0
2017-01-04T03:11:38.706Z,0
2017-01-04T03:12:50.105Z,0
2017-01-04T03:14:01.765Z,0
2017-01-04T03:15:13.169Z,0
2017-01-04T03:16:24.575Z,0
2017-01-04T03:17:35.979Z,0
2017-01-04T03:18:47.384Z,0
2017-01-04T03:19:58.849Z,0
2017-01-04T03:21:10.251Z,0
2017-01-04T03:22:21.657Z,0
2017-01-04T03:23:33.054Z,0
2017-01-04T03:24:44.461Z,0
2017-01-04T03:25:55.909Z,0
2017-01-04T03:27:07.320Z,0
2017-01-04T03:28:18.730Z,0
2017-01-04T03:29:30.137Z,0
2017-01-04T03:30:41.542Z,0
2017-01-04T03:31:52.991Z,0
2017-01-04T03:33:04.786Z,0
2017-01-04T03:34:16.188Z,0
2017-01-04T03:35:27.589Z,0
2017-01-04T03:36:38.999Z,0
2017-01-04T03:37:50.460Z,0
2017-01-04T03:39:01.862Z,0
2017-01-04T03:40:13.455Z,0
2017-01-04T03:41:24.856Z,0
2017-01-04T03:42:36.256Z,0
2017-01-04T03:43:47.915Z,0
2017-01-04T03:44:59.321Z,0
2017-01-04T03:46:10.724Z,0
2017-01-04T03:47:22.319Z,0
2017-01-04T03:48:33.725Z,0
2017-01-04T03:49:45.177Z,0
2017-01-04T03:50:56.576Z,0
2017-01-04T03:52:07.971Z,0
2017-01-04T03:53:19.575Z,0
2017-01-04T03:54:30.989Z,0
2017-01-04T03:55:42.443Z,0
2017-01-04T03:56:53.846Z,0
2017-01-04T03:58:05.245Z,0
2017-01-04T03:59:16.849Z,0
2017-01-04T04:00:28.248Z,0
2017-01-04T04:01:39.695Z,0
2017-01-04T04:02:51.098Z,0
2017-01-04T04:04:02.502Z,0
2017-01-04T04:05:14.099Z,0
2017-01-04T04:06:25.503Z,0
2017-01-04T04:07:36.955Z,0
2017-01-04T04:08:48.354Z,0
2017-01-04T04:09:59.961Z,0
2017-01-04T04:11:11.374Z,0
2017-01-04T04:12:22.770Z,0
2017-01-04T04:13:34.219Z,0
2017-01-04T04:14:45.624Z,0
2017-01-04T04:15:57.029Z,0
2017-01-04T04:17:08.427Z,0
2017-01-04T04:18:19.833Z,0
2017-01-04T04:19:31.492Z,0
2017-01-04T04:20:42.897Z,0
2017-01-04T04:21:54.293Z,0
2017-01-04T04:23:05.897Z,0
2017-01-04T04:24:17.296Z,0
2017-01-04T04:25:28.744Z,0
2017-01-04T04:26:40.353Z,0
2017-01-04T04:27:51.746Z,0
2017-01-04T04:29:03.147Z,0
2017-01-04T04:30:14.548Z,0
2017-01-04T04:31:25.999Z,0
2017-01-04T04:32:37.401Z,0
2017-01-04T04:33:48.812Z,0
2017-01-04T04:35:00.213Z,0
2017-01-04T04:36:11.620Z,0
2017-01-04T04:37:23.283Z,0
2017-01-04T04:38:34.691Z,0
2017-01-04T04:39:46.098Z,0
2017-01-04T04:40:57.509Z,0
2017-01-04T04:42:08.915Z,0
2017-01-04T04:43:20.367Z,0
2017-01-04T04:44:31.775Z,0
2017-01-04T04:45:43.179Z,0
2017-01-04T04:46:54.586Z,0
2017-01-04T04:48:05.985Z,0
2017-01-04T04:49:17.440Z,0
2017-01-04T04:50:29.045Z,0
2017-01-04T04:51:40.644Z,0
2017-01-04T04:52:52.043Z,0
2017-01-04T04:54:03.447Z,0
2017-01-04T04:55:14.899Z,0
2017-01-04T04:56:26.302Z,0
2017-01-04T04:57:37.715Z,0
2017-01-04T04:58:49.146Z,0
2017-01-04T05:00:00.582Z,0
2017-01-04T05:01:12.031Z,0
2017-01-04T05:02:23.441Z,0
2017-01-04T05:03:34.856Z,0
2017-01-04T05:04:46.263Z,0
2017-01-04T05:05:57.669Z,0
2017-01-04T05:07:09.123Z,0
2017-01-04T05:08:20.530Z,0
2017-01-04T05:09:31.928Z,0
2017-01-04T05:10:43.327Z,0
2017-01-04T05:11:54.734Z,0
2017-01-04T05:13:06.387Z,0
2017-01-04T05:14:17.991Z,0
2017-01-04T05:15:29.401Z,0
2017-01-04T05:16:40.807Z,0
2017-01-04T05:17:52.228Z,0
2017-01-04T05:19:03.681Z,0
2017-01-04T05:20:15.088Z,0
2017-01-04T05:21:26.700Z,0
2017-01-04T05:22:38.103Z,0
2017-01-04T05:23:49.506Z,0
2017-01-04T05:25:00.959Z,0
2017-01-04T05:26:12.562Z,0
2017-01-04T05:27:23.963Z,0
2017-01-04T05:28:35.769Z,0
2017-01-04T05:29:47.161Z,0
2017-01-04T05:30:58.620Z,0
2017-01-04T05:32:10.220Z,0
2017-01-04T05:33:21.625Z,0
2017-01-04T05:34:33.027Z,0
2017-01-04T05:35:44.418Z,0
2017-01-04T05:36:55.862Z,0
2017-01-04T05:38:07.269Z,0
2017-01-04T05:39:18.668Z,0
2017-01-04T05:40:30.071Z,0
2017-01-04T05:41:41.480Z,0
2017-01-04T05:42:52.932Z,0
2017-01-04T05:44:04.333Z,0
2017-01-04T05:45:15.738Z,0
2017-01-04T05:46:27.140Z,0
2017-01-04T05:47:38.545Z,0
2017-01-04T05:48:50.013Z,0
2017-01-04T05:50:01.422Z,0
2017-01-04T05:51:13.024Z,0
2017-01-04T05:52:24.434Z,0
2017-01-04T05:53:35.834Z,0
2017-01-04T05:54:47.284Z,0
2017-01-04T05:55:58.689Z,0
2017-01-04T05:57:10.484Z,0
2017-01-04T05:58:21.887Z,0
2017-01-04T05:59:33.497Z,0
2017-01-04T06:00:44.977Z,0
2017-01-04T06:01:56.378Z,0
2017-01-04T06:03:07.780Z,0
2017-01-04T06:04:19.185Z,0
2017-01-04T06:05:30.591Z,0
2017-01-04T06:06:42.033Z,0
2017-01-04T06:07:53.430Z,0
2017-01-04T06:09:04.823Z,0
2017-01-04T06:10:16.218Z,0
2017-01-04T06:11:27.613Z,0
2017-01-04T06:12:39.068Z,0
2017-01-04T06:13:50.472Z,0
2017-01-04T06:15:01.876Z,0
2017-01-04T06:16:13.284Z,0
2017-01-04T06:17:24.681Z,0
2017-01-04T06:18:36.340Z,0
2017-01-04T06:19:47.735Z,0
2017-01-04T06:20:59.140Z,0
2017-01-04T06:22:10.544Z,0
2017-01-04T06:23:21.936Z,0
2017-01-04T06:24:33.384Z,0
2017-01-04T06:25:44.778Z,0
2017-01-04T06:26:56.184Z,0
2017-01-04T06:28:07.593Z,0
2017-01-04T06:29:18.992Z,0
2017-01-04T06:30:30.445Z,0
2017-01-04T06:31:41.847Z,0
2017-01-04T06:32:53.457Z,0
2017-01-04T06:34:04.865Z,0
2017-01-04T06:35:16.269Z,0
2017-01-04T06:36:27.719Z,0
2017-01-04T06:37:39.117Z,0
2017-01-04T06:38:50.716Z,0
2017-01-04T06:40:02.119Z,0
2017-01-04T06:41:13.567Z,0
2017-01-04T06:42:24.974Z,0
2017-01-04T06:43:36.429Z,0
2017-01-04T06:44:47.845Z,0
2017-01-04T06:45:59.240Z,0
2017-01-04T06:47:10.696Z,0
2017-01-04T06:48:22.296Z,0
2017-01-04T06:49:33.710Z,0
2017-01-04T06:50:45.307Z,0
2017-01-04T06:51:56.705Z,0
2017-01-04T06:53:08.358Z,0
2017-01-04T06:54:19.764Z,0
2017-01-04T06:55:31.373Z,0
2017-01-04T06:56:42.772Z,0
2017-01-04T06:57:54.208Z,0
2017-01-04T06:59:05.660Z,0
2017-01-04T07:00:17.265Z,0
2017-01-04T07:01:29.067Z,0
2017-01-04T07:02:40.471Z,0
2017-01-04T07:03:51.873Z,0
2017-01-04T07:05:03.518Z,0
2017-01-04T07:06:14.917Z,0
2017-01-04T07:07:26.343Z,0
2017-01-04T07:08:37.939Z,0
2017-01-04T07:09:49.340Z,0
2017-01-04T07:11:00.803Z,0
2017-01-04T07:12:12.206Z,0
2017-01-04T07:13:23.808Z,0
2017-01-04T07:14:35.402Z,0
2017-01-04T07:15:47.015Z,0
2017-01-04T07:16:58.465Z,0
2017-01-04T07:18:09.868Z,0
2017-01-04T07:19:21.273Z,0
2017-01-04T07:20:32.679Z,0
2017-01-04T07:21:44.081Z,0
2017-01-04T07:22:55.539Z,0
2017-01-04T07:24:06.940Z,5
2017-01-04T07:25:18.338Z,5
2017-01-04T07:26:29.936Z,5
2017-01-04T07:27:41.538Z,0
2017-01-04T07:28:52.991Z,0
2017-01-04T07:30:04.389Z,0
2017-01-04T07:31:16.007Z,0
2017-01-04T07:32:27.406Z,0
2017-01-04T07:33:39.007Z,0
2017-01-04T07:34:50.660Z,5
2017-01-04T07:36:02.260Z,5
2017-01-04T07:37:13.688Z,5
2017-01-04T07:38:25.119Z,10
2017-01-04T07:39:36.521Z,10
2017-01-04T07:40:47.988Z,10
2017-01-04T07:41:59.387Z,15
2017-01-04T07:43:10.785Z,15
2017-01-04T07:44:22.185Z,20
2017-01-04T07:45:33.578Z,20
2017-01-04T07:46:45.032Z,25
2017-01-04T07:47:56.423Z,30
2017-01-04T07:49:08.019Z,30
2017-01-04T07:50:19.418Z,35
2017-01-04T07:51:30.817Z,40
2017-01-04T07:52:42.290Z,40
2017-01-04T07:53:53.694Z,45
2017-01-04T07:55:05.100Z,45
2017-01-04T07:56:16.501Z,45
2017-01-04T07:57:27.896Z,45
2017-01-04T07:58:39.753Z,45
2017-01-04T07:59:51.151Z,45
2017-01-04T08:01:02.557Z,45
2017-01-04T08:02:13.957Z,50
2017-01-04T08:03:25.363Z,65
2017-01-04T08:04:36.817Z,65
2017-01-04T08:05:48.214Z,60
2017-01-04T08:06:59.817Z,60
2017-01-04T08:08:11.215Z,55
2017-01-04T08:09:22.628Z,55
2017-01-04T08:10:34.076Z,60
2017-01-04T08:11:45.467Z,60
2017-01-04T08:12:57.073Z,35
2017-01-04T08:14:08.479Z,20
2017-01-04T08:15:19.869Z,10
2017-01-04T08:16:31.316Z,10
2017-01-04T08:17:42.723Z,10
2017-01-04T08:18:54.123Z,15
2017-01-04T08:20:05.522Z,15
2017-01-04T08:21:16.922Z,15
2017-01-04T08:22:28.412Z,15
2017-01-04T08:23:39.811Z,10
2017-01-04T08:24:51.247Z,10
2017-01-04T08:26:02.654Z,10
2017-01-04T08:27:14.263Z,5
2017-01-04T08:28:25.719Z,10
2017-01-04T08:29:37.122Z,10
2017-01-04T08:30:48.724Z,15
2017-01-04T08:32:00.125Z,20
2017-01-04T08:33:11.537Z,30
2017-01-04T08:34:22.994Z,45
2017-01-04T08:35:34.393Z,60
2017-01-04T08:36:45.789Z,65
2017-01-04T08:37:57.191Z,50
2017-01-04T08:39:08.583Z,55
2017-01-04T08:40:20.038Z,45
2017-01-04T08:41:31.439Z,45
2017-01-04T08:42:43.038Z,50
2017-01-04T08:43:54.434Z,55
2017-01-04T08:45:06.033Z,50
2017-01-04T08:46:17.475Z,40
2017-01-04T08:47:29.077Z,40
2017-01-04T08:48:40.473Z,40
2017-01-04T08:49:51.877Z,40
2017-01-04T08:51:03.276Z,45
2017-01-04T08:52:14.930Z,55
2017-01-04T08:53:26.332Z,55
2017-01-04T08:54:37.928Z,55
2017-01-04T08:55:49.331Z,50
2017-01-04T08:57:00.734Z,45
2017-01-04T08:58:12.186Z,45
2017-01-04T08:59:23.588Z,40
2017-01-04T09:00:35.231Z,35
2017-01-04T09:01:46.660Z,35
2017-01-04T09:02:58.063Z,40
2017-01-04T09:04:09.722Z,45
2017-01-04T09:05:21.123Z,60
2017-01-04T09:06:32.926Z,70
2017-01-04T09:07:44.530Z,80
2017-01-04T09:08:55.934Z,80
2017-01-04T09:10:07.397Z,85
2017-01-04T09:11:18.792Z,85
2017-01-04T09:12:30.195Z,105
2017-01-04T09:13:41.799Z,130
2017-01-04T09:14:53.397Z,140
2017-01-04T09:16:04.844Z,130
2017-01-04T09:17:16.249Z,110
2017-01-04T09:18:27.655Z,90
2017-01-04T09:19:39.257Z,80
2017-01-04T09:20:50.861Z,75
2017-01-04T09:22:02.307Z,80
2017-01-04T09:23:13.710Z,70
2017-01-04T09:24:25.101Z,65
2017-01-04T09:25:36.495Z,55
2017-01-04T09:26:48.123Z,55
2017-01-04T09:27:59.579Z,65
2017-01-04T09:29:10.984Z,65
2017-01-04T09:30:22.590Z,50
2017-01-04T09:31:34.015Z,45
2017-01-04T09:32:45.405Z,60
2017-01-04T09:33:56.852Z,80
2017-01-04T09:35:08.262Z,85
2017-01-04T09:36:19.859Z,100
2017-01-04T09:37:31.459Z,120
2017-01-04T09:38:42.864Z,125
2017-01-04T09:39:54.512Z,140
2017-01-04T09:41:05.918Z,170
2017-01-04T09:42:17.318Z,185
2017-01-04T09:43:28.719Z,180
2017-01-04T09:44:40.120Z,155
2017-01-04T09:45:51.917Z,135
2017-01-04T09:47:03.323Z,130
2017-01-04T09:48:14.728Z,130
2017-01-04T09:49:26.128Z,140
2017-01-04T09:50:37.739Z,150
2017-01-04T09:51:49.380Z,160
2017-01-04T09:53:00.784Z,165
2017-01-04T09:54:12.183Z,160
2017-01-04T09:55:23.589Z,160
2017-01-04T09:56:35.189Z,160
2017-01-04T09:57:46.637Z,160
2017-01-04T09:58:58.033Z,160
2017-01-04T10:00:09.830Z,155
2017-01-04T10:01:21.428Z,155
2017-01-04T10:02:32.834Z,155
2017-01-04T10:03:44.495Z,170
2017-01-04T10:04:55.911Z,235
2017-01-04T10:06:07.542Z,425
2017-01-04T10:07:18.955Z,630
2017-01-04T10:08:30.352Z,805
2017-01-04T10:09:41.999Z,430
2017-01-04T10:10:53.399Z,755
2017-01-04T10:12:04.998Z,280
2017-01-04T10:13:16.414Z,185
2017-01-04T10:14:27.814Z,115
2017-01-04T10:15:39.269Z,70
2017-01-04T10:16:50.667Z,55
2017-01-04T10:18:02.268Z,80
2017-01-04T10:19:13.699Z,95
2017-01-04T10:20:25.090Z,95
2017-01-04T10:21:36.543Z,95
2017-01-04T10:22:47.943Z,90
2017-01-04T10:23:59.347Z,105
2017-01-04T10:25:10.743Z,135
2017-01-04T10:26:22.351Z,195
2017-01-04T10:27:33.806Z,285
2017-01-04T10:28:45.201Z,360
2017-01-04T10:29:56.601Z,450
2017-01-04T10:31:08.005Z,500
2017-01-04T10:32:19.405Z,455
2017-01-04T10:33:30.878Z,690
2017-01-04T10:34:42.292Z,1690
2017-01-04T10:35:53.688Z,230
2017-01-04T10:37:05.098Z,190
2017-01-04T10:38:16.724Z,185
2017-01-04T10:39:28.176Z,185
2017-01-04T10:40:39.787Z,185
2017-01-04T10:41:51.187Z,175
2017-01-04T10:43:02.800Z,160
2017-01-04T10:44:14.397Z,150
2017-01-04T10:45:25.851Z,150
2017-01-04T10:46:37.260Z,175
2017-01-04T10:47:48.664Z,225
2017-01-04T10:49:00.064Z,455
2017-01-04T10:50:11.467Z,1635
2017-01-04T10:51:22.915Z,1455
2017-01-04T10:52:34.318Z,1435
2017-01-04T10:53:45.724Z,315
2017-01-04T10:54:57.325Z,320
2017-01-04T10:56:08.731Z,330
2017-01-04T10:57:20.130Z,405
2017-01-04T10:58:31.539Z,1700
2017-01-04T10:59:42.951Z,1715
2017-01-04T11:00:54.354Z,1730
2017-01-04T11:02:06.013Z,1270
2017-01-04T11:03:17.420Z,1110
2017-01-04T11:04:29.028Z,1455
2017-01-04T11:05:40.639Z,470
2017-01-04T11:06:52.061Z,600
2017-01-04T11:08:03.539Z,1185
2017-01-04T11:09:14.942Z,1465
2017-01-04T11:10:26.346Z,1475
2017-01-04T11:11:37.767Z,795
2017-01-04T11:12:49.372Z,1530
2017-01-04T11:14:00.832Z,1090
2017-01-04T11:15:12.270Z,460
2017-01-04T11:16:23.880Z,375
2017-01-04T11:17:35.289Z,410
2017-01-04T11:18:46.701Z,640
2017-01-04T11:19:58.161Z,1060
2017-01-04T11:21:09.572Z,970
2017-01-04T11:22:20.978Z,880
2017-01-04T11:23:32.386Z,710
2017-01-04T11:24:43.796Z,660
2017-01-04T11:25:55.260Z,705
2017-01-04T11:27:06.669Z,785
2017-01-04T11:28:18.078Z,895
2017-01-04T11:29:29.484Z,830
2017-01-04T11:30:41.097Z,730
2017-01-04T11:31:52.496Z,490
2017-01-04T11:33:03.900Z,575
2017-01-04T11:34:15.505Z,940
2017-01-04T11:35:26.915Z,790
2017-01-04T11:36:38.326Z,885
2017-01-04T11:37:49.742Z,570
2017-01-04T11:39:01.144Z,395
2017-01-04T11:40:12.555Z,355
2017-01-04T11:41:23.961Z,325
2017-01-04T11:42:35.407Z,450
2017-01-04T11:43:46.813Z,355
2017-01-04T11:44:58.214Z,415
2017-01-04T11:46:09.617Z,900
2017-01-04T11:47:21.076Z,1175
2017-01-04T11:48:32.483Z,320
2017-01-04T11:49:43.893Z,260
2017-01-04T11:50:55.301Z,275
2017-01-04T11:52:06.711Z,215
2017-01-04T11:53:18.159Z,205
2017-01-04T11:54:29.617Z,155
2017-01-04T11:55:41.020Z,145
2017-01-04T11:56:52.620Z,165
2017-01-04T11:58:04.036Z,130
2017-01-04T11:59:15.684Z,275
2017-01-04T12:00:27.087Z,560
2017-01-04T12:01:38.491Z,270
2017-01-04T12:02:49.889Z,380
2017-01-04T12:04:01.292Z,585
2017-01-04T12:05:12.748Z,320
2017-01-04T12:06:24.154Z,350
2017-01-04T12:07:35.556Z,335
2017-01-04T12:08:46.973Z,355
2017-01-04T12:09:58.370Z,490
2017-01-04T12:11:10.031Z,625
2017-01-04T12:12:21.447Z,350
2017-01-04T12:13:32.850Z,930
2017-01-04T12:14:44.280Z,520
2017-01-04T12:15:55.735Z,995
2017-01-04T12:17:07.159Z,665
2017-01-04T12:18:18.566Z,285
2017-01-04T12:19:29.971Z,250
2017-01-04T12:20:41.381Z,235
2017-01-04T12:21:52.839Z,260
2017-01-04T12:23:04.241Z,395
2017-01-04T12:24:15.658Z,270
2017-01-04T12:25:27.266Z,405
2017-01-04T12:26:39.075Z,820
2017-01-04T12:27:50.534Z,855
2017-01-04T12:29:02.144Z,605
2017-01-04T12:30:13.556Z,335
2017-01-04T12:31:24.961Z,400
2017-01-04T12:32:36.575Z,730
2017-01-04T12:33:48.032Z,885
2017-01-04T12:34:59.463Z,860
2017-01-04T12:36:10.871Z,800
2017-01-04T12:37:22.283Z,775
2017-01-04T12:38:33.691Z,770
2017-01-04T12:39:45.358Z,690
2017-01-04T12:40:56.964Z,515
2017-01-04T12:42:08.372Z,350
2017-01-04T12:43:19.777Z,360
2017-01-04T12:44:31.388Z,705
2017-01-04T12:45:42.844Z,645
2017-01-04T12:46:54.443Z,685
2017-01-04T12:48:05.854Z,610
2017-01-04T12:49:17.288Z,640
2017-01-04T12:50:28.704Z,565
2017-01-04T12:51:40.163Z,550
2017-01-04T12:52:51.567Z,605
2017-01-04T12:54:02.977Z,620
2017-01-04T12:55:14.386Z,600
2017-01-04T12:56:25.792Z,330
2017-01-04T12:57:37.245Z,415
2017-01-04T12:58:48.840Z,455
2017-01-04T13:00:00.245Z,360
2017-01-04T13:01:11.851Z,300
2017-01-04T13:02:23.280Z,275
2017-01-04T13:03:34.733Z,260
2017-01-04T13:04:46.133Z,295
2017-01-04T13:05:57.549Z,305
2017-01-04T13:07:08.952Z,370
2017-01-04T13:08:20.356Z,355
2017-01-04T13:09:31.814Z,330
2017-01-04T13:10:43.223Z,375
2017-01-04T13:11:54.833Z,315
2017-01-04T13:13:06.238Z,330
2017-01-04T13:14:17.646Z,410
2017-01-04T13:15:29.091Z,380
2017-01-04T13:16:40.692Z,350
2017-01-04T13:17:52.301Z,375
2017-01-04T13:19:03.708Z,385
2017-01-04T13:20:15.322Z,375
2017-01-04T13:21:26.731Z,370
2017-01-04T13:22:38.135Z,280
2017-01-04T13:23:49.548Z,245
2017-01-04T13:25:00.948Z,225
2017-01-04T13:26:12.425Z,255
2017-01-04T13:27:23.833Z,125
2017-01-04T13:28:35.247Z,80
2017-01-04T13:29:46.647Z,60
2017-01-04T13:30:58.246Z,55
2017-01-04T13:32:09.902Z,55
2017-01-04T13:33:21.315Z,55
2017-01-04T13:34:32.714Z,45
2017-01-04T13:35:44.124Z,35
2017-01-04T13:36:55.532Z,35
2017-01-04T13:38:06.983Z,30
2017-01-04T13:39:18.385Z,30
2017-01-04T13:40:29.785Z,30
2017-01-04T13:41:41.178Z,35
2017-01-04T13:42:52.600Z,30
2017-01-04T13:44:04.051Z,35
2017-01-04T13:45:15.658Z,45
2017-01-04T13:46:27.056Z,50
2017-01-04T13:47:38.453Z,40
2017-01-04T13:48:49.857Z,25
2017-01-04T13:50:01.509Z,15
2017-01-04T13:51:12.918Z,15
2017-01-04T13:52:24.317Z,20
2017-01-04T13:53:35.717Z,20
2017-01-04T13:54:47.144Z,30
2017-01-04T13:55:58.600Z,35
2017-01-04T13:57:10.000Z,45
2017-01-04T13:58:21.396Z,50
2017-01-04T13:59:33.000Z,55
2017-01-04T14:00:44.425Z,55
2017-01-04T14:01:55.884Z,55
2017-01-04T14:03:07.278Z,55
2017-01-04T14:04:18.687Z,45
2017-01-04T14:05:30.086Z,45
2017-01-04T14:06:41.487Z,45
2017-01-04T14:07:52.935Z,40
2017-01-04T14:09:04.340Z,40
2017-01-04T14:10:16.146Z,35
2017-01-04T14:11:27.549Z,35
2017-01-04T14:12:39.189Z,35
2017-01-04T14:13:50.843Z,35
2017-01-04T14:15:02.234Z,35
2017-01-04T14:16:13.843Z,35
2017-01-04T14:17:25.244Z,40
2017-01-04T14:18:36.651Z,35
2017-01-04T14:19:48.102Z,40
2017-01-04T14:20:59.503Z,40
2017-01-04T14:22:10.904Z,40
2017-01-04T14:23:22.303Z,35
2017-01-04T14:24:33.699Z,30
2017-01-04T14:25:45.383Z,30
2017-01-04T14:26:56.783Z,25
2017-01-04T14:28:08.186Z,25
2017-01-04T14:29:19.591Z,25
2017-01-04T14:30:30.994Z,30
2017-01-04T14:31:42.445Z,30
2017-01-04T14:32:53.855Z,30
2017-01-04T14:34:05.455Z,30
2017-01-04T14:35:17.061Z,30
2017-01-04T14:36:28.468Z,30
2017-01-04T14:37:39.924Z,30
2017-01-04T14:38:51.323Z,30
2017-01-04T14:40:02.926Z,25
2017-01-04T14:41:14.324Z,20
2017-01-04T14:42:25.725Z,20
2017-01-04T14:43:37.172Z,25
2017-01-04T14:44:48.575Z,30
2017-01-04T14:45:59.973Z,30
2017-01-04T14:47:11.378Z,30
2017-01-04T14:48:22.778Z,20
2017-01-04T14:49:34.444Z,20
2017-01-04T14:50:45.845Z,20
2017-01-04T14:51:57.442Z,25
2017-01-04T14:53:08.840Z,25
2017-01-04T14:54:20.248Z,25
2017-01-04T14:55:31.698Z,20
2017-01-04T14:56:43.297Z,15
2017-01-04T14:57:54.693Z,10
2017-01-04T14:59:06.097Z,10
2017-01-04T15:00:17.496Z,5
2017-01-04T15:01:28.951Z,5
2017-01-04T15:02:40.348Z,5
2017-01-04T15:03:51.954Z,5
2017-01-04T15:05:03.356Z,5
2017-01-04T15:06:14.758Z,5
2017-01-04T15:07:26.205Z,5
2017-01-04T15:08:37.592Z,5
2017-01-04T15:09:48.990Z,5
2017-01-04T15:11:00.394Z,0
2017-01-04T15:12:11.790Z,0
2017-01-04T15:13:23.442Z,0
2017-01-04T15:14:34.847Z,0
2017-01-04T15:15:46.246Z,0
2017-01-04T15:16:57.652Z,0
2017-01-04T15:18:09.059Z,0
2017-01-04T15:19:20.703Z,0
2017-01-04T15:20:32.517Z,0
2017-01-04T15:21:43.922Z,0
2017-01-04T15:22:55.328Z,0
2017-01-04T15:24:06.722Z,0
2017-01-04T15:25:18.173Z,0
2017-01-04T15:26:29.581Z,0
2017-01-04T15:27:40.982Z,0
2017-01-04T15:28:52.413Z,0
2017-01-04T15:30:03.803Z,0
2017-01-04T15:31:15.454Z,0
2017-01-04T15:32:27.050Z,0
2017-01-04T15:33:38.646Z,0
2017-01-04T15:34:50.048Z,0
2017-01-04T15:36:01.676Z,0
2017-01-04T15:37:13.129Z,0
2017-01-04T15:38:24.532Z,0
2017-01-04T15:39:36.137Z,0
2017-01-04T15:40:47.528Z,0
2017-01-04T15:41:58.930Z,0
2017-01-04T15:43:10.381Z,0
2017-01-04T15:44:21.781Z,0
2017-01-04T15:45:33.193Z,0
2017-01-04T15:46:44.582Z,0
2017-01-04T15:47:56.193Z,0
2017-01-04T15:49:07.646Z,0
2017-01-04T15:50:19.056Z,0
2017-01-04T15:51:30.457Z,0
2017-01-04T15:52:41.854Z,0
2017-01-04T15:53:53.455Z,0
2017-01-04T15:55:04.908Z,0
2017-01-04T15:56:16.308Z,0
2017-01-04T15:57:27.708Z,0
2017-01-04T15:58:39.307Z,0
2017-01-04T15:59:50.709Z,0
2017-01-04T16:01:02.316Z,0
2017-01-04T16:02:13.714Z,0
2017-01-04T16:03:25.319Z,0
2017-01-04T16:04:36.921Z,0
2017-01-04T16:05:48.379Z,0
2017-01-04T16:06:59.776Z,0
2017-01-04T16:08:11.369Z,0
2017-01-04T16:09:22.764Z,0
2017-01-04T16:10:34.166Z,0
2017-01-04T16:11:45.615Z,0
2017-01-04T16:12:57.020Z,0
2017-01-04T16:14:08.421Z,0
2017-01-04T16:15:20.028Z,0
2017-01-04T16:16:31.421Z,0
2017-01-04T16:17:43.077Z,0
2017-01-04T16:18:54.485Z,0
2017-01-04T16:20:05.878Z,0
2017-01-04T16:21:17.285Z,0
2017-01-04T16:22:28.685Z,0
2017-01-04T16:23:40.128Z,0
2017-01-04T16:24:51.560Z,0
2017-01-04T16:26:03.155Z,0
2017-01-04T16:27:14.546Z,0
2017-01-04T16:28:25.947Z,0
2017-01-04T16:29:37.396Z,0
2017-01-04T16:30:48.795Z,0
2017-01-04T16:32:00.201Z,0
2017-01-04T16:33:11.610Z,0
2017-01-04T16:34:23.014Z,0
2017-01-04T16:35:34.668Z,0
2017-01-04T16:36:46.077Z,0
2017-01-04T16:37:57.676Z,0
2017-01-04T16:39:09.078Z,0
2017-01-04T16:40:20.478Z,0
2017-01-04T16:41:31.935Z,0
2017-01-04T16:42:43.334Z,0
2017-01-04T16:43:54.937Z,0
2017-01-04T16:45:06.543Z,0
2017-01-04T16:46:17.951Z,0
2017-01-04T16:47:29.404Z,0
2017-01-04T16:48:40.999Z,0
2017-01-04T16:49:52.401Z,0
2017-01-04T16:51:03.807Z,0
2017-01-04T16:52:15.208Z,0
2017-01-04T16:53:26.884Z,0
2017-01-04T16:54:38.284Z,0
2017-01-04T16:55:49.678Z,0
2017-01-04T16:57:01.076Z,0
2017-01-04T16:58:12.471Z,0
2017-01-04T16:59:23.931Z,0
2017-01-04T17:00:35.541Z,0
2017-01-04T17:01:46.945Z,0
2017-01-04T17:02:58.348Z,0
2017-01-04T17:04:09.747Z,0
2017-01-04T17:05:21.199Z,0
2017-01-04T17:06:32.600Z,0
2017-01-04T17:07:44.008Z,0
2017-01-04T17:08:55.417Z,0
2017-01-04T17:10:07.019Z,0
2017-01-04T17:11:18.469Z,0